createdAt,value
2017-12-03T00:02:06.708Z,6.80
2017-12-03T00:04:33.669Z,6.67
2017-12-03T00:06:59.880Z,6.70
2017-12-03T00:09:26.866Z,6.80
2017-12-03T00:11:53.181Z,5.77
2017-12-03T00:14:19.485Z,5.70
2017-12-03T00:16:46.416Z,5.87
2017-12-03T00:19:12.656Z,5.70
2017-12-03T00:21:39.519Z,5.13
2017-12-03T00:24:05.751Z,5.87
2017-12-03T00:26:32.029Z,6.00
2017-12-03T00:28:58.340Z,5.70
2017-12-03T00:31:24.515Z,6.10
2017-12-03T00:33:50.690Z,5.33
2017-12-03T00:36:16.976Z,5.20
2017-12-03T00:38:43.350Z,5.87
2017-12-03T00:41:09.681Z,4.67
2017-12-03T00:43:35.999Z,4.47
2017-12-03T00:46:02.248Z,4.77
2017-12-03T00:48:28.491Z,4.27
2017-12-03T00:50:55.376Z,4.77
2017-12-03T00:53:21.629Z,4.03
2017-12-03T00:55:47.779Z,3.80
2017-12-03T00:58:13.999Z,3.10
2017-12-03T01:00:40.413Z,3.80
2017-12-03T01:03:06.659Z,3.20
2017-12-03T01:05:32.950Z,4.37
2017-12-03T01:07:59.098Z,3.90
2017-12-03T01:10:25.292Z,3.43
2017-12-03T01:12:51.523Z,3.97
2017-12-03T01:15:17.716Z,3.30
2017-12-03T01:17:43.980Z,3.90
2017-12-03T01:20:10.160Z,3.40
2017-12-03T01:22:37.179Z,3.80
2017-12-03T01:25:03.376Z,4.00
2017-12-03T01:27:29.599Z,3.60
2017-12-03T01:29:55.890Z,3.77
2017-12-03T01:32:22.788Z,3.47
2017-12-03T01:34:49.149Z,2.97
2017-12-03T01:37:16.065Z,3.90
2017-12-03T01:39:42.349Z,3.90
2017-12-03T01:42:08.535Z,3.27
2017-12-03T01:44:34.800Z,3.43
2017-12-03T01:47:01.084Z,3.30
2017-12-03T01:49:27.341Z,3.57
2017-12-03T01:51:54.391Z,3.60
2017-12-03T01:54:20.526Z,3.77
2017-12-03T01:56:46.881Z,3.57
2017-12-03T01:59:13.153Z,4.37
2017-12-03T02:01:39.536Z,4.10
2017-12-03T02:04:05.745Z,3.83
2017-12-03T02:06:32.032Z,3.93
2017-12-03T02:08:58.207Z,4.30
2017-12-03T02:11:24.485Z,3.70
2017-12-03T02:13:50.721Z,3.83
2017-12-03T02:16:17.682Z,4.90
2017-12-03T02:18:44.575Z,5.40
2017-12-03T02:21:10.832Z,4.53
2017-12-03T02:23:37.777Z,4.60
2017-12-03T02:26:04.682Z,3.77
2017-12-03T02:28:30.925Z,3.93
2017-12-03T02:30:57.163Z,4.60
2017-12-03T02:33:23.622Z,4.50
2017-12-03T02:35:50.541Z,4.73
2017-12-03T02:38:16.789Z,3.60
2017-12-03T02:40:43.710Z,5.17
2017-12-03T02:43:09.913Z,4.57
2017-12-03T02:45:36.170Z,4.97
2017-12-03T02:48:02.340Z,5.07
2017-12-03T02:50:28.601Z,4.23
2017-12-03T02:52:54.823Z,4.73
2017-12-03T02:55:20.968Z,4.73
2017-12-03T02:57:47.920Z,4.67
2017-12-03T03:00:14.899Z,5.37
2017-12-03T03:02:41.081Z,3.67
2017-12-03T03:05:07.399Z,4.20
2017-12-03T03:07:33.652Z,4.20
2017-12-03T03:10:00.596Z,4.83
2017-12-03T03:12:26.785Z,4.53
2017-12-03T03:14:53.077Z,4.90
2017-12-03T03:17:19.222Z,5.50
2017-12-03T03:19:45.438Z,5.23
2017-12-03T03:22:11.624Z,4.60
2017-12-03T03:24:38.629Z,5.00
2017-12-03T03:27:04.817Z,5.07
2017-12-03T03:29:31.150Z,5.13
2017-12-03T03:31:57.408Z,5.13
2017-12-03T03:34:23.584Z,4.97
2017-12-03T03:36:50.540Z,5.70
2017-12-03T03:39:16.860Z,5.00
2017-12-03T03:41:43.174Z,5.63
2017-12-03T03:44:10.080Z,5.00
2017-12-03T03:46:36.281Z,4.77
2017-12-03T03:49:02.525Z,5.13
2017-12-03T03:51:28.739Z,5.07
2017-12-03T03:53:55.051Z,4.40
2017-12-03T03:56:21.244Z,5.00
2017-12-03T03:58:47.572Z,4.67
2017-12-03T04:01:13.867Z,4.40
2017-12-03T04:03:40.100Z,4.60
2017-12-03T04:06:06.426Z,5.00
2017-12-03T04:08:32.807Z,4.80
2017-12-03T04:10:59.327Z,4.70
2017-12-03T04:13:26.360Z,3.73
2017-12-03T04:15:52.627Z,4.50
2017-12-03T04:18:18.801Z,5.03
2017-12-03T04:20:45.044Z,4.80
2017-12-03T04:23:11.341Z,4.40
2017-12-03T04:25:37.652Z,4.63
2017-12-03T04:28:03.842Z,4.50
2017-12-03T04:30:30.876Z,4.43
2017-12-03T04:32:57.886Z,4.90
2017-12-03T04:35:24.166Z,4.40
2017-12-03T04:37:50.316Z,5.47
2017-12-03T04:40:16.566Z,4.07
2017-12-03T04:42:42.873Z,4.20
2017-12-03T04:45:09.153Z,4.93
2017-12-03T04:47:35.516Z,4.50
2017-12-03T04:50:01.996Z,4.30
2017-12-03T04:52:28.228Z,4.60
2017-12-03T04:54:54.396Z,4.60
2017-12-03T04:57:20.646Z,4.07
2017-12-03T04:59:46.798Z,4.23
2017-12-03T05:02:13.018Z,4.30
2017-12-03T05:04:39.222Z,3.93
2017-12-03T05:07:05.432Z,4.43
2017-12-03T05:09:31.668Z,4.47
2017-12-03T05:11:58.014Z,4.80
2017-12-03T05:14:24.306Z,5.50
2017-12-03T05:16:51.241Z,4.57
2017-12-03T05:19:18.112Z,4.43
2017-12-03T05:21:44.438Z,4.93
2017-12-03T05:24:10.677Z,4.60
2017-12-03T05:26:36.912Z,4.60
2017-12-03T05:29:03.109Z,4.97
2017-12-03T05:31:29.378Z,4.07
2017-12-03T05:33:55.638Z,5.07
2017-12-03T05:36:22.658Z,4.67
2017-12-03T05:38:48.884Z,4.67
2017-12-03T05:41:15.149Z,4.70
2017-12-03T05:43:42.094Z,4.27
2017-12-03T05:46:09.236Z,4.60
2017-12-03T05:48:36.379Z,4.93
2017-12-03T05:51:03.370Z,4.90
2017-12-03T05:53:29.732Z,4.97
2017-12-03T05:55:56.727Z,5.10
2017-12-03T05:58:22.878Z,5.27
2017-12-03T06:00:49.108Z,4.63
2017-12-03T06:03:15.384Z,5.27
2017-12-03T06:05:42.253Z,4.73
2017-12-03T06:08:08.526Z,5.60
2017-12-03T06:10:35.668Z,4.60
2017-12-03T06:13:01.886Z,5.30
2017-12-03T06:15:28.045Z,5.53
2017-12-03T06:17:55.162Z,4.30
2017-12-03T06:20:21.474Z,5.60
2017-12-03T06:22:47.801Z,5.37
2017-12-03T06:25:14.008Z,5.13
2017-12-03T06:27:40.166Z,5.07
2017-12-03T06:30:06.531Z,5.27
2017-12-03T06:32:33.477Z,4.50
2017-12-03T06:35:00.482Z,5.00
2017-12-03T06:37:26.725Z,4.77
2017-12-03T06:39:53.021Z,4.67
2017-12-03T06:42:19.535Z,4.60
2017-12-03T06:44:45.748Z,4.90
2017-12-03T06:47:12.088Z,5.27
2017-12-03T06:49:38.393Z,4.80
2017-12-03T06:52:05.691Z,5.10
2017-12-03T06:54:31.932Z,5.30
2017-12-03T06:56:58.251Z,4.80
2017-12-03T06:59:24.800Z,6.10
2017-12-03T07:01:51.092Z,6.20
2017-12-03T07:04:17.366Z,5.70
2017-12-03T07:06:43.624Z,7.93
2017-12-03T07:09:09.877Z,6.43
2017-12-03T07:11:36.149Z,7.60
2017-12-03T07:14:02.449Z,6.30
2017-12-03T07:16:28.754Z,5.40
2017-12-03T07:18:54.953Z,6.20
2017-12-03T07:21:22.047Z,6.17
2017-12-03T07:23:48.270Z,6.27
2017-12-03T07:26:14.552Z,5.77
2017-12-03T07:28:41.556Z,4.90
2017-12-03T07:31:07.780Z,5.77
2017-12-03T07:33:34.005Z,5.57
2017-12-03T07:36:00.548Z,5.30
2017-12-03T07:38:27.507Z,5.57
2017-12-03T07:40:53.816Z,6.20
2017-12-03T07:43:20.164Z,5.90
2017-12-03T07:45:46.425Z,5.63
2017-12-03T07:48:12.806Z,6.37
2017-12-03T07:50:39.007Z,6.10
2017-12-03T07:53:05.321Z,5.23
2017-12-03T07:55:31.654Z,5.40
2017-12-03T07:57:57.982Z,6.20
2017-12-03T08:00:24.219Z,5.50
2017-12-03T08:02:50.539Z,5.80
2017-12-03T08:05:16.796Z,5.37
2017-12-03T08:07:43.093Z,5.50
2017-12-03T08:10:09.329Z,5.87
2017-12-03T08:12:35.507Z,5.50
2017-12-03T08:15:01.763Z,6.07
2017-12-03T08:17:27.945Z,5.97
2017-12-03T08:19:54.250Z,4.93
2017-12-03T08:22:20.601Z,5.60
2017-12-03T08:24:46.947Z,5.47
2017-12-03T08:27:13.887Z,4.40
2017-12-03T08:29:40.122Z,5.30
2017-12-03T08:32:07.208Z,5.20
2017-12-03T08:34:33.488Z,4.40
2017-12-03T08:36:59.728Z,5.00
2017-12-03T08:39:26.774Z,4.70
2017-12-03T08:41:53.913Z,5.50
2017-12-03T08:44:20.104Z,5.60
2017-12-03T08:46:46.479Z,5.60
2017-12-03T08:49:13.504Z,5.50
2017-12-03T08:51:41.663Z,6.10
2017-12-03T08:54:07.867Z,5.50
2017-12-03T08:56:34.530Z,4.93
2017-12-03T08:59:01.030Z,5.60
2017-12-03T09:01:27.221Z,5.53
2017-12-03T09:03:54.202Z,6.27
2017-12-03T09:06:20.465Z,5.97
2017-12-03T09:08:46.669Z,5.97
2017-12-03T09:11:13.072Z,5.27
2017-12-03T09:13:39.315Z,5.07
2017-12-03T09:16:05.558Z,5.60
2017-12-03T09:18:31.849Z,5.77
2017-12-03T09:20:58.115Z,5.50
2017-12-03T09:23:24.568Z,6.57
2017-12-03T09:25:51.588Z,5.50
2017-12-03T09:28:18.509Z,5.17
2017-12-03T09:30:44.837Z,6.30
2017-12-03T09:33:11.161Z,6.10
2017-12-03T09:35:37.380Z,5.90
2017-12-03T09:38:03.950Z,7.10
2017-12-03T09:40:30.228Z,6.87
2017-12-03T09:42:57.140Z,8.00
2017-12-03T09:45:23.399Z,8.10
2017-12-03T09:47:50.406Z,6.87
2017-12-03T09:50:16.642Z,6.20
2017-12-03T09:52:43.063Z,6.53
2017-12-03T09:55:09.296Z,6.17
2017-12-03T09:57:35.548Z,6.77
2017-12-03T10:00:02.535Z,6.33
2017-12-03T10:02:28.880Z,6.03
2017-12-03T10:04:55.238Z,6.17
2017-12-03T10:07:21.573Z,7.10
2017-12-03T10:09:48.550Z,6.73
2017-12-03T10:12:14.877Z,6.47
2017-12-03T10:14:41.118Z,7.03
2017-12-03T10:17:07.326Z,6.87
2017-12-03T10:19:33.585Z,6.83
2017-12-03T10:21:59.889Z,6.77
2017-12-03T10:24:26.102Z,6.90
2017-12-03T10:26:52.370Z,7.30
2017-12-03T10:29:18.600Z,7.13
2017-12-03T10:31:44.839Z,6.13
2017-12-03T10:34:11.068Z,7.20
2017-12-03T10:36:37.317Z,6.40
2017-12-03T10:39:04.253Z,7.03
2017-12-03T10:41:30.526Z,7.03
2017-12-03T10:43:56.801Z,7.03
2017-12-03T10:46:23.195Z,7.40
2017-12-03T10:48:49.465Z,8.67
2017-12-03T10:51:15.914Z,9.07
2017-12-03T10:53:42.923Z,7.10
2017-12-03T10:56:09.296Z,6.60
2017-12-03T10:58:36.287Z,7.10
2017-12-03T11:01:02.836Z,6.90
2017-12-03T11:03:29.191Z,7.87
2017-12-03T11:05:56.171Z,7.00
2017-12-03T11:08:22.439Z,7.20
2017-12-03T11:10:48.733Z,6.70
2017-12-03T11:13:15.000Z,7.80
2017-12-03T11:15:41.210Z,6.93
2017-12-03T11:18:07.492Z,7.30
2017-12-03T11:20:33.783Z,6.70
2017-12-03T11:23:00.126Z,7.20
2017-12-03T11:25:27.223Z,7.80
2017-12-03T11:27:53.466Z,8.13
2017-12-03T11:30:19.721Z,7.67
2017-12-03T11:32:46.853Z,7.33
2017-12-03T11:35:13.042Z,8.30
2017-12-03T11:37:39.271Z,7.10
2017-12-03T11:40:05.564Z,7.10
2017-12-03T11:42:32.486Z,7.30
2017-12-03T11:44:58.786Z,7.33
2017-12-03T11:47:24.974Z,7.47
2017-12-03T11:49:51.224Z,6.50
2017-12-03T11:52:18.624Z,6.33
2017-12-03T11:54:44.963Z,6.60
2017-12-03T11:57:12.159Z,6.80
2017-12-03T11:59:38.413Z,7.23
2017-12-03T12:02:04.728Z,6.93
2017-12-03T12:04:31.134Z,7.37
2017-12-03T12:06:57.497Z,6.40
2017-12-03T12:09:23.839Z,6.77
2017-12-03T12:11:50.104Z,8.20
2017-12-03T12:14:16.294Z,6.60
2017-12-03T12:16:42.573Z,8.27
2017-12-03T12:19:08.836Z,8.27
2017-12-03T12:21:35.114Z,8.37
2017-12-03T12:24:01.321Z,6.30
2017-12-03T12:26:28.358Z,7.00
2017-12-03T12:28:54.593Z,7.10
2017-12-03T12:31:21.581Z,6.97
2017-12-03T12:33:47.737Z,7.80
2017-12-03T12:36:14.019Z,7.33
2017-12-03T12:38:40.378Z,7.37
2017-12-03T12:41:06.762Z,8.63
2017-12-03T12:43:32.951Z,7.10
2017-12-03T12:45:59.205Z,7.37
2017-12-03T12:48:26.267Z,7.07
2017-12-03T12:50:52.583Z,7.40
2017-12-03T12:53:19.603Z,7.83
2017-12-03T12:55:45.976Z,7.20
2017-12-03T12:58:12.256Z,6.80
2017-12-03T13:00:38.468Z,6.73
2017-12-03T13:03:04.806Z,7.73
2017-12-03T13:05:31.035Z,7.40
2017-12-03T13:07:58.125Z,7.97
2017-12-03T13:10:24.417Z,6.00
2017-12-03T13:12:50.700Z,6.90
2017-12-03T13:15:16.866Z,7.47
2017-12-03T13:17:43.105Z,7.53
2017-12-03T13:20:09.313Z,9.27
2017-12-03T13:22:35.556Z,8.80
2017-12-03T13:25:01.716Z,7.50
2017-12-03T13:27:27.901Z,8.80
2017-12-03T13:29:54.156Z,7.20
2017-12-03T13:32:21.219Z,6.70
2017-12-03T13:34:47.539Z,6.47
2017-12-03T13:37:14.437Z,7.27
2017-12-03T13:39:40.839Z,7.70
2017-12-03T13:42:07.189Z,6.53
2017-12-03T13:44:33.418Z,6.80
2017-12-03T13:46:59.712Z,6.27
2017-12-03T13:49:25.967Z,6.60
2017-12-03T13:51:52.183Z,6.90
2017-12-03T13:54:18.515Z,6.50
2017-12-03T13:56:44.697Z,7.13
2017-12-03T13:59:11.934Z,6.93
2017-12-03T14:01:38.893Z,5.33
2017-12-03T14:04:05.153Z,5.77
2017-12-03T14:06:31.323Z,6.07
2017-12-03T14:08:57.625Z,5.80
2017-12-03T14:11:23.953Z,6.00
2017-12-03T14:13:50.344Z,5.60
2017-12-03T14:16:16.644Z,5.70
2017-12-03T14:18:43.164Z,6.10
2017-12-03T14:21:09.386Z,5.33
2017-12-03T14:23:35.750Z,5.70
2017-12-03T14:26:02.745Z,5.77
2017-12-03T14:28:29.920Z,6.60
2017-12-03T14:30:56.157Z,6.47
2017-12-03T14:33:23.333Z,6.33
2017-12-03T14:35:49.560Z,6.03
2017-12-03T14:38:15.824Z,6.07
2017-12-03T14:40:42.021Z,6.17
2017-12-03T14:43:08.277Z,7.10
2017-12-03T14:45:34.465Z,6.27
2017-12-03T14:48:00.866Z,6.37
2017-12-03T14:50:27.202Z,6.50
2017-12-03T14:52:54.195Z,6.67
2017-12-03T14:55:20.355Z,5.87
2017-12-03T14:57:47.613Z,6.70
2017-12-03T15:00:13.914Z,9.83
2017-12-03T15:02:40.184Z,9.60
2017-12-03T15:05:07.189Z,8.87
2017-12-03T15:07:33.387Z,8.90
2017-12-03T15:09:59.810Z,7.60
2017-12-03T15:12:26.021Z,7.83
2017-12-03T15:14:53.038Z,6.70
2017-12-03T15:17:19.184Z,7.80
2017-12-03T15:19:46.283Z,7.17
2017-12-03T15:22:12.582Z,6.83
2017-12-03T15:24:38.716Z,6.27
2017-12-03T15:27:04.929Z,6.43
2017-12-03T15:29:31.139Z,6.70
2017-12-03T15:31:59.011Z,7.00
2017-12-03T15:34:25.921Z,7.50
2017-12-03T15:36:52.929Z,7.00
2017-12-03T15:39:19.133Z,7.57
2017-12-03T15:41:45.380Z,6.03
2017-12-03T15:44:11.639Z,6.80
2017-12-03T15:46:37.872Z,7.63
2017-12-03T15:49:04.049Z,7.30
2017-12-03T15:51:30.297Z,8.50
2017-12-03T15:53:56.492Z,9.30
2017-12-03T15:56:22.701Z,10.53
2017-12-03T15:58:50.129Z,10.30
2017-12-03T16:01:16.376Z,9.93
2017-12-03T16:03:43.374Z,8.37
2017-12-03T16:06:09.607Z,7.33
2017-12-03T16:08:36.713Z,7.97
2017-12-03T16:11:02.998Z,7.63
2017-12-03T16:13:29.328Z,6.97
2017-12-03T16:15:55.497Z,7.23
2017-12-03T16:18:21.760Z,6.70
2017-12-03T16:20:48.026Z,6.77
2017-12-03T16:23:14.290Z,7.80
2017-12-03T16:25:40.504Z,7.00
2017-12-03T16:28:06.783Z,7.60
2017-12-03T16:30:33.269Z,7.00
2017-12-03T16:32:59.566Z,6.60
2017-12-03T16:35:26.523Z,8.47
2017-12-03T16:37:53.640Z,7.10
2017-12-03T16:40:20.008Z,7.97
2017-12-03T16:42:46.313Z,7.30
2017-12-03T16:45:12.536Z,8.27
2017-12-03T16:47:38.824Z,7.53
2017-12-03T16:50:05.123Z,7.17
2017-12-03T16:52:31.662Z,8.40
2017-12-03T16:54:58.070Z,7.30
2017-12-03T16:57:25.051Z,7.40
2017-12-03T16:59:51.325Z,7.93
2017-12-03T17:02:17.548Z,8.20
2017-12-03T17:04:43.873Z,7.33
2017-12-03T17:07:10.124Z,7.80
2017-12-03T17:09:37.196Z,7.87
2017-12-03T17:12:03.594Z,8.60
2017-12-03T17:14:29.806Z,8.10
2017-12-03T17:16:56.032Z,6.90
2017-12-03T17:19:22.229Z,7.10
2017-12-03T17:21:48.619Z,7.87
2017-12-03T17:24:15.649Z,7.43
2017-12-03T17:26:42.126Z,7.73
2017-12-03T17:29:08.338Z,7.17
2017-12-03T17:31:34.566Z,7.60
2017-12-03T17:34:01.001Z,7.57
2017-12-03T17:36:27.240Z,6.93
2017-12-03T17:38:53.526Z,7.70
2017-12-03T17:41:20.536Z,6.70
2017-12-03T17:43:46.845Z,7.43
2017-12-03T17:46:13.072Z,7.73
2017-12-03T17:48:39.490Z,7.30
2017-12-03T17:51:05.982Z,7.30
2017-12-03T17:53:33.167Z,7.10
2017-12-03T17:55:59.411Z,7.03
2017-12-03T17:58:25.720Z,7.27
2017-12-03T18:00:52.317Z,7.73
2017-12-03T18:03:18.596Z,7.20
2017-12-03T18:05:44.880Z,7.00
2017-12-03T18:08:11.991Z,6.37
2017-12-03T18:10:38.311Z,6.60
2017-12-03T18:13:04.640Z,6.77
2017-12-03T18:15:31.027Z,8.30
2017-12-03T18:17:58.136Z,7.33
2017-12-03T18:20:24.569Z,5.83
2017-12-03T18:22:50.898Z,7.03
2017-12-03T18:25:17.189Z,6.73
2017-12-03T18:27:43.492Z,5.93
2017-12-03T18:30:09.915Z,6.07
2017-12-03T18:32:37.194Z,6.47
2017-12-03T18:35:03.587Z,6.63
2017-12-03T18:37:30.086Z,6.47
2017-12-03T18:39:56.526Z,5.63
2017-12-03T18:42:22.800Z,5.77
2017-12-03T18:44:49.797Z,5.63
2017-12-03T18:47:16.127Z,6.60
2017-12-03T18:49:42.384Z,6.20
2017-12-03T18:52:08.699Z,5.90
2017-12-03T18:54:34.950Z,5.87
2017-12-03T18:57:02.034Z,6.17
2017-12-03T18:59:28.465Z,6.17
2017-12-03T19:01:54.902Z,7.90
2017-12-03T19:04:21.101Z,6.60
2017-12-03T19:06:47.404Z,6.10
2017-12-03T19:09:14.352Z,6.30
2017-12-03T19:11:41.443Z,7.30
2017-12-03T19:14:07.742Z,6.23
2017-12-03T19:16:34.780Z,6.33
2017-12-03T19:19:01.065Z,7.00
2017-12-03T19:21:27.303Z,5.87
2017-12-03T19:23:53.513Z,5.17
2017-12-03T19:26:19.791Z,4.60
2017-12-03T19:28:46.735Z,5.10
2017-12-03T19:31:14.635Z,4.80
2017-12-03T19:33:41.077Z,5.33
2017-12-03T19:36:07.235Z,11.43
2017-12-03T19:38:33.487Z,8.07
2017-12-03T19:41:00.074Z,8.40
2017-12-03T19:43:26.918Z,4.63
2017-12-03T19:45:53.252Z,4.10
2017-12-03T19:48:21.694Z,4.40
2017-12-03T19:50:47.901Z,4.27
2017-12-03T19:53:14.238Z,5.40
2017-12-03T19:55:40.600Z,4.07
2017-12-03T19:58:06.800Z,3.23
2017-12-03T20:00:33.061Z,3.83
2017-12-03T20:02:59.341Z,3.90
2017-12-03T20:05:26.432Z,5.03
2017-12-03T20:07:52.767Z,4.37
2017-12-03T20:10:19.114Z,3.37
2017-12-03T20:12:45.384Z,3.63
2017-12-03T20:15:11.615Z,3.67
2017-12-03T20:17:37.868Z,3.47
2017-12-03T20:20:04.029Z,3.97
2017-12-03T20:22:31.050Z,4.80
2017-12-03T20:24:57.224Z,4.20
2017-12-03T20:27:24.260Z,3.63
2017-12-03T20:29:51.882Z,3.87
2017-12-03T20:32:18.383Z,3.80
2017-12-03T20:34:44.606Z,4.20
2017-12-03T20:37:10.819Z,3.67
2017-12-03T20:39:37.102Z,2.90
2017-12-03T20:42:03.367Z,3.77
2017-12-03T20:44:30.453Z,3.90
2017-12-03T20:46:56.747Z,3.40
2017-12-03T20:49:23.073Z,3.40
2017-12-03T20:51:50.175Z,3.37
2017-12-03T20:54:16.458Z,3.40
2017-12-03T20:56:42.659Z,3.70
2017-12-03T20:59:09.818Z,3.90
2017-12-03T21:01:36.929Z,3.70
2017-12-03T21:04:03.136Z,3.47
2017-12-03T21:06:29.313Z,3.47
2017-12-03T21:08:56.341Z,2.70
2017-12-03T21:11:22.511Z,3.60
2017-12-03T21:13:48.734Z,2.90
2017-12-03T21:16:15.006Z,3.63
2017-12-03T21:18:41.198Z,2.30
2017-12-03T21:21:07.464Z,2.83
2017-12-03T21:23:33.638Z,2.73
2017-12-03T21:26:00.106Z,2.70
2017-12-03T21:28:26.316Z,4.23
2017-12-03T21:30:52.681Z,2.37
2017-12-03T21:33:18.984Z,2.80
2017-12-03T21:35:45.265Z,2.70
2017-12-03T21:38:12.252Z,2.70
2017-12-03T21:40:39.547Z,3.13
2017-12-03T21:43:06.568Z,3.20
2017-12-03T21:45:32.698Z,3.00
2017-12-03T21:47:59.079Z,3.80
2017-12-03T21:50:25.300Z,2.97
2017-12-03T21:52:51.592Z,3.00
2017-12-03T21:55:17.806Z,2.90
2017-12-03T21:57:43.998Z,3.13
2017-12-03T22:00:15.123Z,3.50
2017-12-03T22:02:41.518Z,3.50
2017-12-03T22:05:07.724Z,3.23
2017-12-03T22:07:34.003Z,3.30
2017-12-03T22:10:00.195Z,2.93
2017-12-03T22:12:26.427Z,2.80
2017-12-03T22:14:52.621Z,2.90
2017-12-03T22:17:19.664Z,3.40
2017-12-03T22:19:45.921Z,2.80
2017-12-03T22:22:12.228Z,3.30
2017-12-03T22:24:38.460Z,3.23
2017-12-03T22:27:06.146Z,3.10
2017-12-03T22:29:33.164Z,3.20
2017-12-03T22:31:59.515Z,2.57
2017-12-03T22:34:25.813Z,3.13
2017-12-03T22:36:52.131Z,3.53
2017-12-03T22:39:18.377Z,4.87
2017-12-03T22:41:44.705Z,3.97
2017-12-03T22:44:10.934Z,4.80
2017-12-03T22:46:37.150Z,5.97
2017-12-03T22:49:03.408Z,5.77
2017-12-03T22:51:29.755Z,3.70
2017-12-03T22:53:56.840Z,3.50
2017-12-03T22:56:23.212Z,4.33
2017-12-03T22:58:49.372Z,4.50
2017-12-03T23:01:15.694Z,3.40
2017-12-03T23:03:41.933Z,5.10
2017-12-03T23:06:08.256Z,4.20
2017-12-03T23:08:34.416Z,3.10
2017-12-03T23:11:00.813Z,3.00
2017-12-03T23:13:27.050Z,3.00
2017-12-03T23:15:53.245Z,3.40
2017-12-03T23:18:20.204Z,3.10
2017-12-03T23:20:46.707Z,3.50
2017-12-03T23:23:13.093Z,3.10
2017-12-03T23:25:39.403Z,3.30
2017-12-03T23:28:05.675Z,3.10
2017-12-03T23:30:31.887Z,3.27
2017-12-03T23:32:58.110Z,3.00
2017-12-03T23:35:24.331Z,3.07
2017-12-03T23:37:50.863Z,3.53
2017-12-03T23:40:17.053Z,3.40
2017-12-03T23:42:43.981Z,3.33
2017-12-03T23:45:10.919Z,3.40
2017-12-03T23:47:37.124Z,3.87
2017-12-03T23:50:03.298Z,2.87
2017-12-03T23:52:29.473Z,3.07
2017-12-03T23:54:55.724Z,3.30
2017-12-03T23:57:21.875Z,2.93
2017-12-03T23:59:48.862Z,2.67
